Time;durP1;ratioP1;P1;durP2;ratioP2;P2;SDS_P1;SDS_P2;PMS_P1;PMS_P2;Temp;Humidity;BMP_temperature;BMP_pressure;BME280_temperature;BME280_humidity;BME280_pressure;Samples;Min_cycle;Max_cycle;Signal;HPM_P1;HPM_P2
2021/12/26 00:00:28;;;;;;;3.05;2.72;;;14.80;44.90;;;;;;5129310;27;47074;-16
2021/12/26 00:02:54;;;;;;;2.50;2.30;;;14.80;44.80;;;;;;5129896;27;47163;-17
2021/12/26 00:05:21;;;;;;;2.60;2.40;;;14.80;44.80;;;;;;5129229;27;48096;-17
2021/12/26 00:07:48;;;;;;;3.05;2.40;;;14.80;44.80;;;;;;5129546;27;46746;-17
2021/12/26 00:10:17;;;;;;;2.47;2.28;;;14.80;44.80;;;;;;5129061;27;46767;-17
2021/12/26 00:12:50;;;;;;;2.40;2.20;;;14.80;44.80;;;;;;5129788;27;47001;-17
2021/12/26 00:15:17;;;;;;;2.83;2.58;;;14.80;44.80;;;;;;5128889;27;47050;-17
2021/12/26 00:17:44;;;;;;;3.03;2.38;;;14.80;44.80;;;;;;5129272;27;46844;-17
2021/12/26 00:20:11;;;;;;;2.25;2.08;;;14.80;44.80;;;;;;5128768;27;47045;-16
2021/12/26 00:22:38;;;;;;;2.45;2.25;;;14.70;44.70;;;;;;5129279;27;46817;-17
2021/12/26 00:25:05;;;;;;;2.10;1.98;;;14.70;44.80;;;;;;5128778;27;46822;-17
2021/12/26 00:27:33;;;;;;;2.40;2.20;;;14.70;44.80;;;;;;5129063;27;46908;-16
2021/12/26 00:30:04;;;;;;;2.22;2.05;;;14.70;44.80;;;;;;5129227;27;46931;-16
2021/12/26 00:32:31;;;;;;;2.00;1.90;;;14.70;44.80;;;;;;5129516;27;47155;-17
2021/12/26 00:34:58;;;;;;;2.38;2.17;;;14.70;44.80;;;;;;5128917;27;47805;-17
2021/12/26 00:37:24;;;;;;;2.92;2.60;;;14.60;44.80;;;;;;5128049;27;47240;-17
2021/12/26 00:39:51;;;;;;;2.20;2.00;;;14.60;44.90;;;;;;5128786;27;46898;-17
2021/12/26 00:42:18;;;;;;;2.63;2.08;;;14.60;44.80;;;;;;5128891;27;46882;-17
2021/12/26 00:44:46;;;;;;;2.17;2.00;;;14.60;44.90;;;;;;5128264;27;48814;-17
2021/12/26 00:47:13;;;;;;;2.40;2.20;;;14.60;44.90;;;;;;5128839;27;47044;-16
2021/12/26 00:49:40;;;;;;;2.63;2.35;;;14.60;44.90;;;;;;5128532;27;46895;-17
2021/12/26 00:52:07;;;;;;;2.30;2.10;;;14.60;44.90;;;;;;5128987;27;47164;-17
2021/12/26 00:54:34;;;;;;;2.45;2.25;;;14.50;44.90;;;;;;5128659;27;48029;-17
2021/12/26 00:57:01;;;;;;;2.03;1.90;;;14.50;44.90;;;;;;5128461;27;47296;-17
2021/12/26 00:59:27;;;;;;;2.28;2.08;;;14.50;44.80;;;;;;5128692;27;46847;-18
2021/12/26 01:01:56;;;;;;;2.30;2.10;;;14.50;44.80;;;;;;5128697;27;47282;-17
2021/12/26 01:04:22;;;;;;;2.10;2.00;;;14.50;44.90;;;;;;5128568;27;46854;-17
2021/12/26 01:06:49;;;;;;;2.30;2.10;;;14.50;44.90;;;;;;5128570;27;46800;-18
2021/12/26 01:09:21;;;;;;;2.17;2.08;;;14.50;44.90;;;;;;5128148;27;47357;-16
2021/12/26 01:11:52;;;;;;;2.40;2.20;;;14.50;45.00;;;;;;5128617;27;46966;-17
2021/12/26 01:14:25;;;;;;;2.28;2.05;;;14.50;44.90;;;;;;5128043;27;47931;-17
2021/12/26 01:17:02;;;;;;;1.80;1.70;;;14.40;44.90;;;;;;5128141;27;46904;-17
2021/12/26 01:19:41;;;;;;;2.53;2.20;;;14.40;45.00;;;;;;5128063;27;47017;-17
2021/12/26 01:22:08;;;;;;;2.42;2.17;;;14.40;45.00;;;;;;5128398;27;47031;-17
2021/12/26 01:24:35;;;;;;;2.20;2.00;;;14.40;45.10;;;;;;5128221;27;47359;-17
2021/12/26 01:27:02;;;;;;;2.03;1.92;;;14.40;45.10;;;;;;5127953;27;46902;-17
2021/12/26 01:29:28;;;;;;;2.13;1.92;;;14.30;45.00;;;;;;5127857;27;46905;-16
2021/12/26 01:31:55;;;;;;;2.30;2.10;;;14.30;45.00;;;;;;5128115;27;47067;-17
2021/12/26 01:34:22;;;;;;;2.25;2.00;;;14.30;45.00;;;;;;5127802;27;46803;-17
2021/12/26 01:36:50;;;;;;;2.20;2.00;;;14.30;45.00;;;;;;5128126;27;47258;-18
2021/12/26 01:39:17;;;;;;;2.10;1.90;;;14.30;45.10;;;;;;5127728;27;46973;-17
2021/12/26 01:41:44;;;;;;;2.10;1.90;;;14.30;45.00;;;;;;5128224;27;47117;-18
2021/12/26 01:44:12;;;;;;;2.45;2.25;;;14.30;45.00;;;;;;5127165;27;47853;-17
2021/12/26 01:46:39;;;;;;;2.10;1.92;;;14.20;45.00;;;;;;5127634;27;46830;-17
2021/12/26 01:49:08;;;;;;;1.92;1.83;;;14.30;45.00;;;;;;5127309;27;46907;-17
2021/12/26 01:51:35;;;;;;;1.88;1.77;;;14.20;45.00;;;;;;5128130;27;46920;-17
2021/12/26 01:54:08;;;;;;;2.13;1.92;;;14.20;45.00;;;;;;5127377;27;48927;-17
2021/12/26 01:56:34;;;;;;;1.83;1.73;;;14.20;45.00;;;;;;5127891;27;46958;-17
2021/12/26 01:59:01;;;;;;;2.10;1.95;;;14.20;45.00;;;;;;5127446;27;46953;-17
2021/12/26 02:01:28;;;;;;;2.13;1.92;;;14.20;45.10;;;;;;5127991;27;46917;-17
2021/12/26 02:03:55;;;;;;;1.95;1.73;;;14.20;45.00;;;;;;5127140;27;48212;-17
2021/12/26 02:06:21;;;;;;;1.95;1.70;;;14.20;45.00;;;;;;5127349;27;47208;-17
2021/12/26 02:08:48;;;;;;;1.92;1.80;;;14.20;45.10;;;;;;5127508;27;46860;-17
2021/12/26 02:11:16;;;;;;;1.65;1.55;;;14.10;45.00;;;;;;5127578;27;47082;-17
2021/12/26 02:13:43;;;;;;;1.90;1.80;;;14.20;45.00;;;;;;5127298;27;46896;-17
2021/12/26 02:16:10;;;;;;;1.80;1.70;;;14.10;45.00;;;;;;5127139;27;47389;-17
2021/12/26 02:18:37;;;;;;;1.98;1.80;;;14.10;45.10;;;;;;5127407;27;46868;-17
2021/12/26 02:21:16;;;;;;;2.05;1.85;;;14.10;45.10;;;;;;5127697;27;47300;-17
2021/12/26 02:23:48;;;;;;;2.00;1.80;;;14.10;45.00;;;;;;5127282;27;47910;-17
2021/12/26 02:29:14;;;;;;;2.05;1.85;;;14.10;45.10;;;;;;5081462;28;46957;-16
2021/12/26 02:31:40;;;;;;;1.80;1.70;;;14.00;45.10;;;;;;5083978;28;46939;-17
2021/12/26 02:34:07;;;;;;;1.63;1.52;;;14.00;45.10;;;;;;5101643;27;49019;-17
2021/12/26 02:36:35;;;;;;;1.70;1.60;;;14.00;45.20;;;;;;5127153;27;46875;-17
2021/12/26 02:39:04;;;;;;;2.05;1.92;;;14.00;45.20;;;;;;5126730;27;46902;-17
2021/12/26 02:41:30;;;;;;;1.73;1.63;;;14.00;45.20;;;;;;5127006;27;47223;-17
2021/12/26 02:43:57;;;;;;;1.63;1.52;;;14.00;45.20;;;;;;5126707;27;48127;-17
2021/12/26 02:46:28;;;;;;;1.90;1.80;;;14.00;45.20;;;;;;5126732;27;46965;-17
2021/12/26 02:48:55;;;;;;;2.17;1.98;;;13.90;45.30;;;;;;5126679;27;46825;-17
2021/12/26 02:51:21;;;;;;;1.92;1.83;;;13.90;45.20;;;;;;5126906;27;46905;-17
2021/12/26 02:53:50;;;;;;;2.13;1.70;;;13.90;45.20;;;;;;5126428;27;47973;-18
2021/12/26 02:56:16;;;;;;;1.98;1.67;;;13.90;45.30;;;;;;5126856;27;46989;-16
2021/12/26 02:58:45;;;;;;;1.63;1.52;;;13.90;45.30;;;;;;5126650;27;46945;-17
2021/12/26 03:01:13;;;;;;;1.85;1.75;;;13.90;45.30;;;;;;5126254;27;46811;-17
2021/12/26 03:03:39;;;;;;;1.77;1.67;;;13.90;45.40;;;;;;5126663;27;49026;-16
2021/12/26 03:06:16;;;;;;;1.67;1.50;;;13.80;45.40;;;;;;5126755;27;47183;-17
2021/12/26 03:08:43;;;;;;;1.95;1.75;;;13.80;45.40;;;;;;5126573;27;46868;-17
2021/12/26 03:11:11;;;;;;;1.85;1.75;;;13.80;46.00;;;;;;5126824;27;46862;-17
2021/12/26 03:13:37;;;;;;;1.63;1.52;;;13.80;45.40;;;;;;5126332;27;49080;-17
2021/12/26 03:16:05;;;;;;;1.88;1.63;;;13.80;45.40;;;;;;5126395;27;46918;-17
2021/12/26 03:18:31;;;;;;;1.63;1.50;;;13.80;45.50;;;;;;5126544;27;46910;-17
2021/12/26 03:20:58;;;;;;;1.58;1.40;;;13.80;45.40;;;;;;5126679;27;46820;-17
2021/12/26 03:23:26;;;;;;;1.65;1.55;;;13.70;45.30;;;;;;5126609;27;48464;-17
2021/12/26 03:25:55;;;;;;;1.75;1.60;;;13.80;45.50;;;;;;5126188;27;46952;-17
2021/12/26 03:28:23;;;;;;;1.80;1.70;;;13.70;45.40;;;;;;5126461;27;46894;-16
2021/12/26 03:30:51;;;;;;;1.67;1.58;;;13.70;45.40;;;;;;5126615;27;46818;-17
2021/12/26 03:33:20;;;;;;;1.55;1.45;;;13.70;45.40;;;;;;5126201;27;47111;-17
2021/12/26 03:35:47;;;;;;;1.55;1.45;;;13.70;45.40;;;;;;5126111;27;46991;-17
2021/12/26 03:38:13;;;;;;;1.65;1.55;;;13.70;45.40;;;;;;5126386;27;46838;-17
2021/12/26 03:40:40;;;;;;;1.33;1.23;;;13.70;45.40;;;;;;5126022;27;46789;-17
2021/12/26 03:43:08;;;;;;;1.50;1.40;;;13.70;45.50;;;;;;5125983;27;47830;-17
2021/12/26 03:45:36;;;;;;;1.50;1.38;;;13.70;45.50;;;;;;5125506;27;46916;-17
2021/12/26 03:48:03;;;;;;;1.90;1.70;;;13.70;45.50;;;;;;5126323;27;46982;-16
2021/12/26 03:50:30;;;;;;;1.65;1.55;;;13.60;45.60;;;;;;5126357;27;46879;-18
2021/12/26 03:52:57;;;;;;;1.50;1.40;;;13.60;45.50;;;;;;5125875;27;48122;-17
2021/12/26 03:55:25;;;;;;;1.50;1.40;;;13.60;45.50;;;;;;5125842;27;47209;-16
2021/12/26 03:57:52;;;;;;;1.90;1.67;;;13.60;45.60;;;;;;5125898;27;46895;-17
2021/12/26 04:00:19;;;;;;;2.45;1.60;;;13.60;45.60;;;;;;5126064;27;46789;-17
2021/12/26 04:02:47;;;;;;;1.48;1.38;;;13.60;45.60;;;;;;5125805;27;47055;-17
2021/12/26 04:05:14;;;;;;;1.48;1.38;;;13.60;45.60;;;;;;5125853;27;47056;-17
2021/12/26 04:07:41;;;;;;;1.52;1.42;;;13.60;45.60;;;;;;5126145;27;46810;-17
2021/12/26 04:10:08;;;;;;;1.60;1.50;;;13.60;45.60;;;;;;5126046;27;47331;-17
2021/12/26 04:12:37;;;;;;;1.30;1.20;;;13.50;45.50;;;;;;5127761;27;47936;-17
2021/12/26 04:15:04;;;;;;;1.70;1.40;;;13.50;45.40;;;;;;5128950;27;46983;-17
2021/12/26 04:17:31;;;;;;;1.20;1.10;;;13.50;45.50;;;;;;5129470;27;46853;-18
2021/12/26 04:19:59;;;;;;;1.70;1.60;;;13.50;45.50;;;;;;5129510;27;46929;-17
2021/12/26 04:22:25;;;;;;;1.50;1.40;;;13.50;45.60;;;;;;5129271;27;48934;-17
2021/12/26 04:24:52;;;;;;;1.67;1.35;;;13.50;45.70;;;;;;5128692;27;46931;-16
2021/12/26 04:27:19;;;;;;;1.23;1.15;;;13.50;45.60;;;;;;5129301;27;46974;-16
2021/12/26 04:29:45;;;;;;;1.35;1.25;;;13.50;45.60;;;;;;5129308;27;46900;-17
2021/12/26 04:32:12;;;;;;;1.50;1.40;;;13.50;45.60;;;;;;5129188;27;49171;-17
2021/12/26 04:34:39;;;;;;;1.67;1.58;;;13.50;45.60;;;;;;5128817;27;47002;-17
2021/12/26 04:37:07;;;;;;;1.50;1.40;;;13.40;45.60;;;;;;5129306;27;46773;-17
2021/12/26 04:39:34;;;;;;;1.67;1.40;;;13.50;45.60;;;;;;5128970;27;47276;-17
2021/12/26 04:42:00;;;;;;;1.95;1.25;;;13.40;45.60;;;;;;5128981;27;47856;-17
2021/12/26 04:44:28;;;;;;;1.50;1.40;;;13.40;45.60;;;;;;5128229;27;47005;-17
2021/12/26 04:46:54;;;;;;;1.40;1.30;;;13.40;45.70;;;;;;5128996;27;46818;-16
2021/12/26 04:49:21;;;;;;;1.42;1.33;;;13.40;45.60;;;;;;5128609;27;47114;-17
2021/12/26 04:51:48;;;;;;;1.60;1.50;;;13.40;45.60;;;;;;5128856;27;48253;-17
2021/12/26 04:54:16;;;;;;;1.17;1.07;;;13.40;45.60;;;;;;5128714;27;46960;-16
2021/12/26 04:56:42;;;;;;;1.55;1.20;;;13.40;45.70;;;;;;5128874;27;46813;-17
2021/12/26 04:59:09;;;;;;;1.40;1.30;;;13.40;45.70;;;;;;5128567;27;46923;-16
2021/12/26 05:01:36;;;;;;;1.35;1.27;;;13.40;45.70;;;;;;5128623;27;49089;-18
2021/12/26 05:04:03;;;;;;;1.52;1.20;;;13.30;45.60;;;;;;5128528;27;47484;-17
2021/12/26 05:06:29;;;;;;;1.53;1.30;;;13.30;45.80;;;;;;5128810;27;46874;-17
2021/12/26 05:08:56;;;;;;;1.40;1.30;;;13.30;45.80;;;;;;5128685;27;46890;-17
2021/12/26 05:11:24;;;;;;;1.43;1.33;;;13.30;45.70;;;;;;5128557;27;47921;-17
2021/12/26 05:13:51;;;;;;;1.40;1.30;;;13.30;45.80;;;;;;5128075;27;47501;-17
2021/12/26 05:16:18;;;;;;;1.23;1.20;;;13.30;45.80;;;;;;5128558;27;47073;-17
2021/12/26 05:18:44;;;;;;;1.35;1.25;;;13.30;45.70;;;;;;5128553;27;46980;-17
2021/12/26 05:21:11;;;;;;;1.33;1.23;;;13.30;45.80;;;;;;5128188;27;48758;-18
2021/12/26 05:23:38;;;;;;;1.38;1.27;;;13.20;45.70;;;;;;5127808;27;47015;-17
2021/12/26 05:26:04;;;;;;;1.58;1.48;;;13.20;45.70;;;;;;5128422;27;46817;-17
2021/12/26 05:28:34;;;;;;;1.77;1.42;;;13.20;45.70;;;;;;5128286;27;47296;-17
2021/12/26 05:31:00;;;;;;;1.57;1.47;;;13.20;45.80;;;;;;5127928;27;49073;-17
2021/12/26 05:33:27;;;;;;;1.40;1.30;;;13.20;45.80;;;;;;5127999;27;46926;-17
2021/12/26 05:35:54;;;;;;;1.33;1.23;;;13.20;45.70;;;;;;5128242;27;46827;-16
2021/12/26 05:38:21;;;;;;;1.37;1.27;;;13.20;45.70;;;;;;5128348;27;47074;-18
2021/12/26 05:40:47;;;;;;;1.35;1.25;;;13.20;45.80;;;;;;5127669;27;47849;-16
2021/12/26 05:43:14;;;;;;;1.40;1.30;;;13.20;45.80;;;;;;5127830;27;46792;-17
2021/12/26 05:45:42;;;;;;;1.30;1.20;;;13.20;45.80;;;;;;5127601;27;47020;-17
2021/12/26 05:48:09;;;;;;;1.10;1.10;;;13.20;45.80;;;;;;5128162;27;46888;-18
2021/12/26 05:50:35;;;;;;;1.40;1.15;;;13.10;45.70;;;;;;5127656;27;48122;-17
2021/12/26 05:53:02;;;;;;;1.30;1.20;;;13.20;45.90;;;;;;5127821;27;46813;-16
2021/12/26 05:55:29;;;;;;;1.30;1.20;;;13.10;45.80;;;;;;5127519;27;46868;-17
2021/12/26 05:57:55;;;;;;;1.20;1.10;;;13.10;45.90;;;;;;5128044;27;46993;-17
2021/12/26 06:00:22;;;;;;;1.50;1.40;;;13.10;45.90;;;;;;5127474;27;48844;-17
2021/12/26 06:02:52;;;;;;;1.35;1.25;;;13.10;45.90;;;;;;5127762;27;46913;-18
2021/12/26 06:05:19;;;;;;;1.30;1.20;;;13.10;45.90;;;;;;5127636;27;46742;-17
2021/12/26 06:07:46;;;;;;;1.60;1.50;;;13.10;45.90;;;;;;5127640;27;46921;-17
2021/12/26 06:10:12;;;;;;;1.47;1.20;;;13.10;45.90;;;;;;5127520;27;49052;-16
2021/12/26 06:12:39;;;;;;;1.23;1.13;;;13.10;45.90;;;;;;5127781;27;46918;-17
2021/12/26 06:15:06;;;;;;;1.07;0.97;;;13.10;45.90;;;;;;5126980;27;47050;-17
2021/12/26 06:17:33;;;;;;;1.40;1.30;;;13.10;46.00;;;;;;5127792;27;47236;-17
2021/12/26 06:20:01;;;;;;;1.40;1.30;;;13.10;46.00;;;;;;5127174;27;49073;-17
2021/12/26 06:22:28;;;;;;;1.40;1.30;;;13.00;45.90;;;;;;5127389;27;46932;-18
2021/12/26 06:24:54;;;;;;;1.40;1.30;;;13.00;45.90;;;;;;5127258;27;46808;-17
2021/12/26 06:27:21;;;;;;;1.20;1.10;;;13.00;45.90;;;;;;5127524;27;47165;-17
2021/12/26 06:29:48;;;;;;;1.20;1.10;;;13.00;45.90;;;;;;5126897;27;47090;-17
2021/12/26 06:32:14;;;;;;;1.08;1.08;;;13.00;45.90;;;;;;5127252;27;46922;-17
2021/12/26 06:34:41;;;;;;;1.10;1.10;;;13.00;46.00;;;;;;5126971;27;46906;-16
2021/12/26 06:37:09;;;;;;;1.23;0.97;;;13.00;45.90;;;;;;5126416;27;47146;-17
2021/12/26 06:39:36;;;;;;;1.13;1.03;;;13.00;45.90;;;;;;5126669;27;47842;-17
2021/12/26 06:42:03;;;;;;;1.00;1.00;;;13.00;45.90;;;;;;5126958;27;46889;-17
2021/12/26 06:44:29;;;;;;;1.00;1.00;;;13.00;46.10;;;;;;5126665;27;47106;-17
2021/12/26 06:46:56;;;;;;;1.07;0.97;;;13.00;46.10;;;;;;5127340;27;46849;-17
2021/12/26 06:49:23;;;;;;;0.97;0.97;;;12.90;45.90;;;;;;5126846;27;48901;-17
2021/12/26 06:51:49;;;;;;;1.10;1.00;;;12.90;45.90;;;;;;5127135;27;46868;-18
2021/12/26 06:54:17;;;;;;;1.10;1.10;;;13.00;46.00;;;;;;5126784;27;46987;-17
2021/12/26 06:56:44;;;;;;;1.20;1.13;;;13.00;46.00;;;;;;5126866;27;46898;-17
2021/12/26 06:59:11;;;;;;;1.00;1.00;;;12.90;46.00;;;;;;5126604;27;48881;-16
2021/12/26 07:01:37;;;;;;;1.17;1.07;;;12.90;45.90;;;;;;5126768;27;46972;-17
2021/12/26 07:04:04;;;;;;;1.07;0.97;;;12.90;45.90;;;;;;5126446;27;46924;-16
2021/12/26 07:06:31;;;;;;;1.00;1.00;;;12.90;45.90;;;;;;5126959;27;46821;-17
2021/12/26 07:08:58;;;;;;;0.93;0.90;;;12.90;45.80;;;;;;5126335;27;47067;-16
2021/12/26 07:11:26;;;;;;;1.00;1.00;;;12.90;45.90;;;;;;5126716;27;46852;-17
2021/12/26 07:13:52;;;;;;;0.90;0.90;;;12.90;46.00;;;;;;5126592;27;46937;-17
2021/12/26 07:16:19;;;;;;;0.90;0.90;;;12.90;46.00;;;;;;5126755;27;46941;-17
2021/12/26 07:18:46;;;;;;;0.90;0.90;;;12.90;46.00;;;;;;5126490;27;47035;-17
2021/12/26 07:21:12;;;;;;;1.17;1.07;;;12.80;45.90;;;;;;5126319;27;47095;-17
2021/12/26 07:23:39;;;;;;;1.07;0.97;;;12.90;45.90;;;;;;5126568;27;46817;-17
2021/12/26 07:26:06;;;;;;;1.00;0.90;;;12.90;46.00;;;;;;5126870;27;47249;-17
2021/12/26 07:28:34;;;;;;;1.00;1.00;;;12.80;45.90;;;;;;5126412;27;48833;-17
2021/12/26 07:31:00;;;;;;;0.93;0.93;;;12.90;46.00;;;;;;5126526;27;46998;-17
2021/12/26 07:33:27;;;;;;;0.90;0.90;;;12.80;46.00;;;;;;5126212;27;46791;-17
2021/12/26 07:35:54;;;;;;;0.80;0.80;;;12.80;45.90;;;;;;5126617;27;47284;-17
2021/12/26 07:38:20;;;;;;;1.07;1.00;;;12.80;46.00;;;;;;5126270;27;48145;-18
2021/12/26 07:40:47;;;;;;;0.87;0.87;;;12.80;45.90;;;;;;5125694;27;46864;-16
2021/12/26 07:43:14;;;;;;;1.13;1.03;;;12.80;45.90;;;;;;5126076;27;46937;-16
2021/12/26 07:45:42;;;;;;;1.20;1.10;;;12.80;45.90;;;;;;5124620;27;46940;-17
2021/12/26 07:48:09;;;;;;;0.90;0.90;;;12.80;46.00;;;;;;5128197;27;49054;-17
2021/12/26 07:50:35;;;;;;;0.80;0.80;;;12.80;46.00;;;;;;5127904;27;46985;-17
2021/12/26 07:53:07;;;;;;;0.80;0.80;;;12.80;46.10;;;;;;5128614;27;47050;-16
2021/12/26 07:55:33;;;;;;;0.80;0.80;;;12.80;46.00;;;;;;5129089;27;47027;-17
2021/12/26 07:58:00;;;;;;;1.17;1.07;;;12.80;46.00;;;;;;5128825;27;47050;-17
2021/12/26 08:00:27;;;;;;;1.10;1.10;;;12.80;46.00;;;;;;5128662;27;47117;-16
2021/12/26 08:02:55;;;;;;;1.10;1.10;;;12.80;46.00;;;;;;5128532;27;47103;-17
2021/12/26 08:05:22;;;;;;;0.90;0.90;;;12.70;45.90;;;;;;5129151;27;47283;-17
2021/12/26 08:07:49;;;;;;;0.77;0.77;;;12.80;45.90;;;;;;5129601;27;48975;-17
2021/12/26 08:10:15;;;;;;;0.90;0.90;;;12.80;45.90;;;;;;5129155;27;47198;-17
2021/12/26 08:12:42;;;;;;;0.83;0.83;;;12.80;45.90;;;;;;5129362;27;46853;-16
2021/12/26 08:15:09;;;;;;;0.90;0.90;;;12.80;46.00;;;;;;5129639;27;47300;-17
2021/12/26 08:17:38;;;;;;;0.80;0.80;;;12.70;46.00;;;;;;5129421;27;49040;-17
2021/12/26 08:20:08;;;;;;;0.90;0.90;;;12.70;45.90;;;;;;5129005;27;47581;-16
2021/12/26 08:22:34;;;;;;;1.00;1.00;;;12.70;46.00;;;;;;5129109;27;47053;-16
2021/12/26 08:25:01;;;;;;;0.90;0.90;;;12.70;45.90;;;;;;5129350;27;46894;-17
2021/12/26 08:27:28;;;;;;;0.80;0.80;;;12.70;45.90;;;;;;5129476;27;49002;-17
2021/12/26 08:29:54;;;;;;;0.90;0.90;;;12.70;46.00;;;;;;5128929;27;46824;-17
2021/12/26 08:32:21;;;;;;;0.90;0.90;;;12.70;46.00;;;;;;5129315;27;46950;-17
2021/12/26 08:34:48;;;;;;;1.53;1.27;;;12.70;46.00;;;;;;5129138;27;47185;-18
2021/12/26 08:37:16;;;;;;;1.00;0.90;;;12.70;46.00;;;;;;5129381;27;47754;-17
2021/12/26 08:39:43;;;;;;;0.80;0.80;;;12.70;45.90;;;;;;5128816;27;47093;-17
2021/12/26 08:42:11;;;;;;;0.90;0.90;;;12.70;46.10;;;;;;5128875;27;47000;-18
2021/12/26 08:44:38;;;;;;;0.97;0.93;;;12.70;46.00;;;;;;5129070;27;46959;-16
2021/12/26 08:47:05;;;;;;;0.87;0.87;;;12.70;46.00;;;;;;5128929;27;48121;-17
2021/12/26 08:49:32;;;;;;;1.00;1.00;;;12.70;46.00;;;;;;5128319;27;46920;-17
2021/12/26 08:51:59;;;;;;;0.80;0.80;;;12.70;46.00;;;;;;5129000;27;47019;-17
2021/12/26 08:54:29;;;;;;;0.90;0.90;;;12.70;46.00;;;;;;5128674;27;47343;-17
2021/12/26 08:56:56;;;;;;;0.83;0.83;;;12.70;46.00;;;;;;5128611;27;48870;-17
2021/12/26 08:59:24;;;;;;;1.10;1.00;;;12.70;46.00;;;;;;5127549;27;46989;-17
2021/12/26 09:01:51;;;;;;;1.13;1.03;;;12.70;46.00;;;;;;5128773;27;46986;-18
2021/12/26 09:04:17;;;;;;;0.97;0.97;;;12.70;46.00;;;;;;5128481;27;46939;-16
2021/12/26 09:06:44;;;;;;;1.00;1.00;;;12.70;46.00;;;;;;5128587;27;48379;-17
2021/12/26 09:09:11;;;;;;;1.30;1.20;;;12.60;46.00;;;;;;5128594;27;46906;-17
2021/12/26 09:11:39;;;;;;;1.03;0.93;;;12.60;46.00;;;;;;5128662;27;46814;-17
2021/12/26 09:14:05;;;;;;;1.10;1.10;;;12.60;46.00;;;;;;5128686;27;47347;-17
2021/12/26 09:16:34;;;;;;;1.20;1.10;;;12.60;46.00;;;;;;5128580;27;49064;-17
2021/12/26 09:19:00;;;;;;;1.03;1.00;;;12.60;46.00;;;;;;5128311;27;46972;-17
2021/12/26 09:21:27;;;;;;;1.10;1.00;;;12.60;46.10;;;;;;5128151;27;46756;-17
2021/12/26 09:23:54;;;;;;;1.03;1.03;;;12.60;46.00;;;;;;5128488;27;46900;-17
2021/12/26 09:26:21;;;;;;;1.50;1.03;;;12.60;46.00;;;;;;5128484;27;48264;-18
2021/12/26 09:28:49;;;;;;;1.00;1.00;;;12.60;46.00;;;;;;5128204;27;46925;-17
2021/12/26 09:31:16;;;;;;;1.40;0.93;;;12.60;45.90;;;;;;5128062;27;46897;-17
2021/12/26 09:33:42;;;;;;;1.20;1.10;;;12.70;45.90;;;;;;5128501;27;46824;-17
2021/12/26 09:36:09;;;;;;;1.07;0.97;;;12.70;46.10;;;;;;5127804;27;48242;-16
2021/12/26 09:38:36;;;;;;;1.17;1.07;;;12.60;45.90;;;;;;5127878;27;46974;-17
2021/12/26 09:41:02;;;;;;;1.20;1.10;;;12.70;46.00;;;;;;5128083;27;46817;-17
2021/12/26 09:43:29;;;;;;;1.00;1.00;;;12.70;46.00;;;;;;5127899;27;46827;-17
2021/12/26 09:45:57;;;;;;;1.20;1.10;;;12.60;46.00;;;;;;5127746;27;48124;-17
2021/12/26 09:48:24;;;;;;;1.10;1.00;;;12.60;45.90;;;;;;5127943;27;47161;-17
2021/12/26 09:50:50;;;;;;;1.13;1.07;;;12.60;45.90;;;;;;5128035;27;47271;-16
2021/12/26 09:53:17;;;;;;;1.30;1.20;;;12.70;46.00;;;;;;5128222;27;46894;-18
2021/12/26 09:55:44;;;;;;;1.10;1.10;;;12.70;45.90;;;;;;5127779;27;48205;-17
2021/12/26 09:58:10;;;;;;;1.00;1.00;;;12.70;45.90;;;;;;5127998;27;47267;-18
2021/12/26 10:00:39;;;;;;;1.43;1.33;;;12.70;45.90;;;;;;5127232;27;46975;-17
2021/12/26 10:03:16;;;;;;;1.30;1.20;;;12.70;45.90;;;;;;5127692;27;47297;-17
2021/12/26 10:06:00;;;;;;;1.30;1.20;;;12.70;45.90;;;;;;5127483;27;48148;-17
2021/12/26 10:08:28;;;;;;;1.13;1.10;;;12.70;46.00;;;;;;5127315;27;46954;-17
2021/12/26 10:11:08;;;;;;;1.50;1.40;;;12.70;45.90;;;;;;5127585;27;46948;-17
2021/12/26 10:13:40;;;;;;;1.53;1.43;;;12.70;45.90;;;;;;5127873;27;46956;-17
2021/12/26 10:16:06;;;;;;;1.37;1.27;;;12.70;46.00;;;;;;5127453;27;49164;-17
2021/12/26 10:18:39;;;;;;;1.70;1.60;;;12.60;45.90;;;;;;5127351;27;46907;-17
2021/12/26 10:21:34;;;;;;;1.60;1.50;;;12.70;46.00;;;;;;5127482;27;46914;-17
2021/12/26 10:24:03;;;;;;;1.50;1.37;;;12.60;45.90;;;;;;5127595;27;46918;-17
2021/12/26 10:26:31;;;;;;;1.40;1.30;;;12.70;46.00;;;;;;5127115;27;47976;-17
2021/12/26 10:29:13;;;;;;;1.80;1.70;;;12.70;45.90;;;;;;5127259;27;47199;-17
2021/12/26 10:31:47;;;;;;;1.60;1.50;;;12.70;45.90;;;;;;5127264;27;46918;-17
2021/12/26 10:34:20;;;;;;;1.57;1.47;;;12.70;45.90;;;;;;5127308;27;46781;-17
2021/12/26 10:36:48;;;;;;;1.90;1.70;;;12.70;46.00;;;;;;5127301;27;49061;-17
2021/12/26 10:39:17;;;;;;;1.90;1.80;;;12.70;45.90;;;;;;5127153;27;47486;-17
2021/12/26 10:41:45;;;;;;;1.50;1.40;;;12.70;45.90;;;;;;5127060;27;47057;-16
2021/12/26 10:44:20;;;;;;;1.60;1.50;;;12.70;45.90;;;;;;5127120;27;47247;-17
2021/12/26 10:46:47;;;;;;;1.73;1.63;;;12.70;45.90;;;;;;5126750;27;47094;-17
2021/12/26 10:49:26;;;;;;;1.57;1.47;;;12.70;46.00;;;;;;5126871;27;47453;-17
2021/12/26 10:51:53;;;;;;;1.50;1.40;;;12.70;46.00;;;;;;5126759;27;46945;-17
2021/12/26 10:54:20;;;;;;;1.43;1.40;;;12.70;46.00;;;;;;5126991;27;46978;-17
2021/12/26 10:57:03;;;;;;;1.70;1.60;;;12.70;45.90;;;;;;5126534;27;48792;-18
2021/12/26 10:59:29;;;;;;;1.83;1.57;;;12.70;45.90;;;;;;5126341;27;46927;-17
2021/12/26 11:01:56;;;;;;;1.70;1.60;;;12.70;45.90;;;;;;5126745;27;46995;-17
2021/12/26 11:04:24;;;;;;;1.57;1.40;;;12.70;45.90;;;;;;5126595;27;46882;-17
2021/12/26 11:07:01;;;;;;;1.50;1.40;;;12.70;45.90;;;;;;5126370;27;48033;-17
2021/12/26 11:09:27;;;;;;;1.50;1.40;;;12.70;45.90;;;;;;5126397;27;47396;-17
2021/12/26 11:12:02;;;;;;;1.60;1.50;;;12.70;45.90;;;;;;5126820;27;46886;-17
2021/12/26 11:14:28;;;;;;;1.50;1.40;;;12.70;46.00;;;;;;5126675;27;47272;-17
2021/12/26 11:16:55;;;;;;;1.60;1.50;;;12.70;45.90;;;;;;5126741;27;49022;-17
2021/12/26 11:19:42;;;;;;;1.60;1.50;;;12.70;45.90;;;;;;5126426;27;47450;-17
2021/12/26 11:22:09;;;;;;;1.37;1.27;;;12.70;45.90;;;;;;5127747;27;46905;-17
2021/12/26 11:24:36;;;;;;;1.50;1.40;;;12.70;46.00;;;;;;5130111;27;47256;-17
2021/12/26 11:27:03;;;;;;;1.60;1.50;;;12.70;45.90;;;;;;5130313;27;48170;-18
2021/12/26 11:29:30;;;;;;;1.53;1.43;;;12.70;45.90;;;;;;5129776;27;46872;-17
2021/12/26 11:31:57;;;;;;;1.53;1.43;;;12.70;45.90;;;;;;5130406;27;46903;-17
2021/12/26 11:34:23;;;;;;;1.50;1.40;;;12.70;45.80;;;;;;5130464;27;46925;-17
2021/12/26 11:36:51;;;;;;;1.30;1.30;;;12.70;45.80;;;;;;5130009;27;48792;-17
2021/12/26 11:39:18;;;;;;;1.20;1.20;;;12.80;45.80;;;;;;5129859;27;47424;-17
2021/12/26 11:41:56;;;;;;;1.40;1.30;;;12.70;45.80;;;;;;5130391;27;46908;-18
2021/12/26 11:44:48;;;;;;;1.60;1.50;;;12.70;45.80;;;;;;5129758;27;47026;-17
2021/12/26 11:47:25;;;;;;;1.33;1.27;;;12.80;45.90;;;;;;5129969;27;48032;-16
2021/12/26 11:50:11;;;;;;;1.30;1.20;;;12.80;45.80;;;;;;5129871;27;46969;-17
2021/12/26 11:52:48;;;;;;;1.57;1.47;;;12.80;45.70;;;;;;5129983;27;46891;-17
2021/12/26 11:55:23;;;;;;;1.23;1.17;;;12.80;45.80;;;;;;5130008;27;46841;-17
2021/12/26 11:58:24;;;;;;;1.67;1.53;;;12.80;45.90;;;;;;5129679;27;47939;-17
2021/12/26 12:00:51;;;;;;;1.50;1.40;;;12.80;45.80;;;;;;5095296;27;47095;-17
2021/12/26 12:03:19;;;;;;;1.50;1.40;;;12.80;45.80;;;;;;5129808;27;46966;-17
2021/12/26 12:05:46;;;;;;;1.37;1.27;;;12.80;45.80;;;;;;5129513;27;46851;-17
2021/12/26 12:08:14;;;;;;;1.20;1.20;;;12.80;45.90;;;;;;5129690;27;47870;-17
2021/12/26 12:10:44;;;;;;;1.47;1.37;;;12.80;45.90;;;;;;5129481;27;47168;-17
2021/12/26 12:13:12;;;;;;;1.60;1.50;;;12.80;45.80;;;;;;5129629;27;46837;-17
2021/12/26 12:15:44;;;;;;;1.43;1.20;;;12.70;45.70;;;;;;5129745;27;47268;-17
2021/12/26 12:18:12;;;;;;;1.40;1.30;;;12.80;45.90;;;;;;5129538;27;47962;-17
2021/12/26 12:20:39;;;;;;;1.20;1.10;;;12.80;45.80;;;;;;5129400;27;47254;-17
2021/12/26 12:23:18;;;;;;;1.37;1.27;;;12.80;45.80;;;;;;5129369;27;46926;-17
2021/12/26 12:25:50;;;;;;;1.30;1.20;;;12.80;45.90;;;;;;5129538;27;46817;-17
2021/12/26 12:28:22;;;;;;;1.50;1.40;;;12.80;45.80;;;;;;5129373;27;48126;-16
2021/12/26 12:30:50;;;;;;;1.37;1.20;;;12.70;45.80;;;;;;5128993;27;46862;-17
2021/12/26 12:33:22;;;;;;;1.87;1.47;;;12.80;45.80;;;;;;5128027;27;46958;-17
2021/12/26 12:35:50;;;;;;;1.40;1.30;;;12.80;45.60;;;;;;5129179;27;46864;-17
2021/12/26 12:38:23;;;;;;;1.30;1.20;;;12.80;45.90;;;;;;5129148;27;46895;-17
2021/12/26 12:40:50;;;;;;;1.43;1.37;;;12.80;45.80;;;;;;5129100;27;46868;-17
2021/12/26 12:43:18;;;;;;;1.40;1.30;;;12.80;45.80;;;;;;5129411;27;46993;-16
2021/12/26 12:46:08;;;;;;;1.30;1.20;;;12.80;45.80;;;;;;5128620;27;47130;-17
2021/12/26 12:48:40;;;;;;;1.40;1.30;;;12.80;45.80;;;;;;5128715;27;47960;-17
2021/12/26 12:51:41;;;;;;;1.10;1.10;;;12.80;45.80;;;;;;5129067;27;46848;-17
2021/12/26 12:54:30;;;;;;;1.30;1.20;;;12.80;45.80;;;;;;5125735;27;46948;-16
2021/12/26 12:56:57;;;;;;;1.03;1.03;;;12.80;45.80;;;;;;5129254;27;47066;-17